createdAt,value
2018-09-18T00:00:35.833Z,2.70
2018-09-18T00:03:04.325Z,3.20
2018-09-18T00:05:32.778Z,3.10
2018-09-18T00:08:01.290Z,2.73
2018-09-18T00:10:29.794Z,3.00
2018-09-18T00:12:58.289Z,3.23
2018-09-18T00:15:26.798Z,3.50
2018-09-18T00:17:55.321Z,3.07
2018-09-18T00:20:23.810Z,3.27
2018-09-18T00:22:52.342Z,2.40
2018-09-18T00:25:20.835Z,2.97
2018-09-18T00:27:49.503Z,3.10
2018-09-18T00:30:18.038Z,2.90
2018-09-18T00:32:46.531Z,3.30
2018-09-18T00:35:15.843Z,2.77
2018-09-18T00:37:44.337Z,3.20
2018-09-18T00:40:12.910Z,2.90
2018-09-18T00:42:41.419Z,3.57
2018-09-18T00:45:09.924Z,3.77
2018-09-18T00:47:38.367Z,3.30
2018-09-18T00:50:06.955Z,3.00
2018-09-18T00:52:35.409Z,2.73
2018-09-18T00:55:03.906Z,2.77
2018-09-18T00:57:32.389Z,3.00
2018-09-18T01:00:00.951Z,3.27
2018-09-18T01:02:29.659Z,2.90
2018-09-18T01:04:58.151Z,3.63
2018-09-18T01:07:26.610Z,3.27
2018-09-18T01:09:55.190Z,3.33
2018-09-18T01:12:23.688Z,3.20
2018-09-18T01:14:52.151Z,3.40
2018-09-18T01:17:20.635Z,3.63
2018-09-18T01:19:49.053Z,3.60
2018-09-18T01:22:17.534Z,2.80
2018-09-18T01:24:45.923Z,3.10
2018-09-18T01:27:14.454Z,3.30
2018-09-18T01:29:43.199Z,3.23
2018-09-18T01:32:11.668Z,3.53
2018-09-18T01:34:40.129Z,3.40
2018-09-18T01:37:08.768Z,3.53
2018-09-18T01:39:37.358Z,3.80
2018-09-18T01:42:05.961Z,3.60
2018-09-18T01:44:34.537Z,3.10
2018-09-18T01:47:03.262Z,3.70
2018-09-18T01:49:31.758Z,4.50
2018-09-18T01:52:00.218Z,4.27
2018-09-18T01:54:28.719Z,3.33
2018-09-18T01:56:57.248Z,3.63
2018-09-18T01:59:25.815Z,3.73
2018-09-18T02:01:54.286Z,4.00
2018-09-18T02:04:22.763Z,3.40
2018-09-18T02:06:51.222Z,4.10
2018-09-18T02:09:19.883Z,4.13
2018-09-18T02:11:48.363Z,3.63
2018-09-18T02:14:16.872Z,3.53
2018-09-18T02:16:45.352Z,3.93
2018-09-18T02:19:13.770Z,3.73
2018-09-18T02:21:42.141Z,4.77
2018-09-18T02:24:10.642Z,3.90
2018-09-18T02:26:39.084Z,4.67
2018-09-18T02:29:07.589Z,4.63
2018-09-18T02:31:36.110Z,4.43
2018-09-18T02:34:04.602Z,4.83
2018-09-18T02:36:33.082Z,3.60
2018-09-18T02:39:01.589Z,3.50
2018-09-18T02:41:30.051Z,3.83
2018-09-18T02:43:58.427Z,4.23
2018-09-18T02:46:26.847Z,3.50
2018-09-18T02:48:55.235Z,4.70
2018-09-18T02:51:23.658Z,3.37
2018-09-18T02:53:52.157Z,3.23
2018-09-18T02:56:20.543Z,3.80
2018-09-18T02:58:49.043Z,2.87
2018-09-18T03:01:17.515Z,3.43
2018-09-18T03:03:46.771Z,3.20
2018-09-18T03:06:15.105Z,3.50
2018-09-18T03:08:43.422Z,3.27
2018-09-18T03:11:12.004Z,3.27
2018-09-18T03:13:40.394Z,3.83
2018-09-18T03:16:08.891Z,3.67
2018-09-18T03:18:37.339Z,3.90
2018-09-18T03:21:05.869Z,3.40
2018-09-18T03:23:34.271Z,3.93
2018-09-18T03:26:02.772Z,3.83
2018-09-18T03:28:31.192Z,4.40
2018-09-18T03:30:59.915Z,3.53
2018-09-18T03:33:28.348Z,4.00
2018-09-18T03:35:56.925Z,4.27
2018-09-18T03:38:25.359Z,2.90
2018-09-18T03:40:53.815Z,3.90
2018-09-18T03:43:22.325Z,3.73
2018-09-18T03:45:50.815Z,3.77
2018-09-18T03:48:19.426Z,3.77
2018-09-18T03:50:47.898Z,3.47
2018-09-18T03:53:16.378Z,4.27
2018-09-18T03:55:44.853Z,4.23
2018-09-18T03:58:13.394Z,4.63
2018-09-18T04:00:41.860Z,4.27
2018-09-18T04:03:10.299Z,4.43
2018-09-18T04:05:38.750Z,4.47
2018-09-18T04:08:07.172Z,4.70
2018-09-18T04:10:35.663Z,5.30
2018-09-18T04:13:04.152Z,4.27
2018-09-18T04:15:32.618Z,4.60
2018-09-18T04:18:01.131Z,4.83
2018-09-18T04:20:29.631Z,5.60
2018-09-18T04:22:58.095Z,5.10
2018-09-18T04:25:26.613Z,4.70
2018-09-18T04:27:55.059Z,5.13
2018-09-18T04:30:24.677Z,5.00
2018-09-18T04:32:53.130Z,5.30
2018-09-18T04:35:21.696Z,3.77
2018-09-18T04:37:50.193Z,4.37
2018-09-18T04:40:18.695Z,5.13
2018-09-18T04:42:47.231Z,5.00
2018-09-18T04:45:15.697Z,5.20
2018-09-18T04:47:44.197Z,4.40
2018-09-18T04:50:12.707Z,3.67
2018-09-18T04:52:41.190Z,4.17
2018-09-18T04:55:09.915Z,3.87
2018-09-18T04:57:38.430Z,4.10
2018-09-18T05:00:07.603Z,3.43
2018-09-18T05:02:36.111Z,3.80
2018-09-18T05:05:04.899Z,4.50
2018-09-18T05:07:33.380Z,4.03
2018-09-18T05:10:01.938Z,5.00
2018-09-18T05:12:30.562Z,5.00
2018-09-18T05:14:59.054Z,4.20
2018-09-18T05:17:27.638Z,4.83
2018-09-18T05:19:56.086Z,4.47
2018-09-18T05:22:24.677Z,5.23
2018-09-18T05:24:53.154Z,4.80
2018-09-18T05:27:21.618Z,5.27
2018-09-18T05:29:50.045Z,6.37
2018-09-18T05:32:18.533Z,4.90
2018-09-18T05:34:47.422Z,4.97
2018-09-18T05:37:15.842Z,4.03
2018-09-18T05:39:44.346Z,4.10
2018-09-18T05:42:12.775Z,4.80
2018-09-18T05:44:41.116Z,4.93
2018-09-18T05:47:10.391Z,4.73
2018-09-18T05:49:38.857Z,4.50
2018-09-18T05:52:07.263Z,4.30
2018-09-18T05:54:35.674Z,4.20
2018-09-18T05:57:04.134Z,5.90
2018-09-18T05:59:32.810Z,5.57
2018-09-18T06:02:01.279Z,4.10
2018-09-18T06:04:29.730Z,4.53
2018-09-18T06:06:58.192Z,4.30
2018-09-18T06:09:26.705Z,4.57
2018-09-18T06:11:55.195Z,4.30
2018-09-18T06:14:23.747Z,4.27
2018-09-18T06:16:52.321Z,4.60
2018-09-18T06:19:21.007Z,5.07
2018-09-18T06:21:49.434Z,5.87
2018-09-18T06:24:17.957Z,4.00
2018-09-18T06:26:46.473Z,4.70
2018-09-18T06:29:15.052Z,5.00
2018-09-18T06:31:43.614Z,4.97
2018-09-18T06:34:12.384Z,6.67
2018-09-18T06:36:40.868Z,4.47
2018-09-18T06:39:11.679Z,4.60
2018-09-18T06:41:41.879Z,4.50
2018-09-18T06:44:11.719Z,2.90
2018-09-18T06:46:41.550Z,3.13
2018-09-18T06:49:11.296Z,3.33
2018-09-18T06:51:41.637Z,3.70
2018-09-18T06:54:10.307Z,3.40
2018-09-18T06:56:38.839Z,3.30
2018-09-18T06:59:07.363Z,3.30
2018-09-18T07:01:35.898Z,3.70
2018-09-18T07:04:05.330Z,4.10
2018-09-18T07:06:34.055Z,3.87
2018-09-18T07:09:02.863Z,2.60
2018-09-18T07:11:31.732Z,3.13
2018-09-18T07:14:00.268Z,2.63
2018-09-18T07:16:28.782Z,3.23
2018-09-18T07:18:57.290Z,3.63
2018-09-18T07:21:25.805Z,3.27
2018-09-18T07:23:54.308Z,3.13
2018-09-18T07:26:22.814Z,3.27
2018-09-18T07:28:51.342Z,3.53
2018-09-18T07:31:21.354Z,2.83
2018-09-18T07:33:56.276Z,3.00
2018-09-18T07:36:25.066Z,2.90
2018-09-18T07:38:53.612Z,2.90
2018-09-18T07:41:23.726Z,3.20
2018-09-18T07:43:53.309Z,3.07
2018-09-18T07:46:22.472Z,2.70
2018-09-18T07:48:52.329Z,3.40
2018-09-18T07:51:20.909Z,2.93
2018-09-18T07:53:49.461Z,3.13
2018-09-18T07:56:18.035Z,3.00
2018-09-18T07:58:47.309Z,3.20
2018-09-18T08:01:16.480Z,3.00
2018-09-18T08:03:45.033Z,2.70
2018-09-18T08:06:13.565Z,2.67
2018-09-18T08:08:42.121Z,3.23
2018-09-18T08:11:10.674Z,2.73
2018-09-18T08:13:39.326Z,3.37
2018-09-18T08:16:07.849Z,3.00
2018-09-18T08:18:36.383Z,3.17
2018-09-18T08:21:04.882Z,2.50
2018-09-18T08:23:33.359Z,3.57
2018-09-18T08:26:01.845Z,3.20
2018-09-18T08:28:30.328Z,3.23
2018-09-18T08:30:58.808Z,2.90
2018-09-18T08:33:27.340Z,3.50
2018-09-18T08:35:55.813Z,2.70
2018-09-18T08:38:24.530Z,3.83
2018-09-18T08:40:53.138Z,3.20
2018-09-18T08:43:21.717Z,2.93
2018-09-18T08:45:50.216Z,3.20
2018-09-18T08:48:18.725Z,3.50
2018-09-18T08:50:47.230Z,3.23
2018-09-18T08:53:15.799Z,4.63
2018-09-18T08:55:44.238Z,2.97
2018-09-18T08:58:12.685Z,3.23
2018-09-18T09:00:41.269Z,2.93
2018-09-18T09:03:10.001Z,3.10
2018-09-18T09:05:39.831Z,2.70
2018-09-18T09:08:09.302Z,3.10
2018-09-18T09:10:40.041Z,2.87
2018-09-18T09:13:08.518Z,2.77
2018-09-18T09:15:37.069Z,4.10
2018-09-18T09:18:06.728Z,2.60
2018-09-18T09:20:37.316Z,2.70
2018-09-18T09:23:05.865Z,2.63
2018-09-18T09:25:39.226Z,2.77
2018-09-18T09:28:10.058Z,2.80
2018-09-18T09:30:38.543Z,3.30
2018-09-18T09:33:07.024Z,2.77
2018-09-18T09:35:35.605Z,3.43
2018-09-18T09:38:04.117Z,3.33
2018-09-18T09:40:32.619Z,2.90
2018-09-18T09:43:01.185Z,2.80
2018-09-18T09:45:29.688Z,3.20
2018-09-18T09:47:58.238Z,3.10
2018-09-18T09:50:26.727Z,3.10
2018-09-18T09:52:55.185Z,2.93
2018-09-18T09:55:28.903Z,3.27
2018-09-18T09:57:57.473Z,3.40
2018-09-18T10:00:32.138Z,3.73
2018-09-18T10:03:00.698Z,2.60
2018-09-18T10:05:29.242Z,3.37
2018-09-18T10:07:57.849Z,3.00
2018-09-18T10:10:30.254Z,2.43
2018-09-18T10:12:58.720Z,2.57
2018-09-18T10:15:27.201Z,3.07
2018-09-18T10:17:55.797Z,3.27
2018-09-18T10:20:24.343Z,3.60
2018-09-18T10:22:52.957Z,2.27
2018-09-18T10:25:21.558Z,3.37
2018-09-18T10:27:50.121Z,2.83
2018-09-18T10:30:18.705Z,3.03
2018-09-18T10:32:47.340Z,3.23
2018-09-18T10:35:16.376Z,2.60
2018-09-18T10:37:44.847Z,2.87
2018-09-18T10:40:13.301Z,2.80
2018-09-18T10:42:43.851Z,2.93
2018-09-18T10:45:13.028Z,3.30
2018-09-18T10:47:42.107Z,3.67
2018-09-18T10:50:14.972Z,3.00
2018-09-18T10:52:44.613Z,3.50
2018-09-18T10:55:13.357Z,3.10
2018-09-18T10:57:42.306Z,3.00
2018-09-18T11:00:11.432Z,3.70
2018-09-18T11:02:40.117Z,3.20
2018-09-18T11:05:08.569Z,2.80
2018-09-18T11:07:37.045Z,3.60
2018-09-18T11:10:05.618Z,3.20
2018-09-18T11:12:35.880Z,2.60
2018-09-18T11:15:04.245Z,3.30
2018-09-18T11:17:32.486Z,3.00
2018-09-18T11:20:00.879Z,2.40
2018-09-18T11:22:29.299Z,2.73
2018-09-18T11:24:57.608Z,3.40
2018-09-18T11:27:25.941Z,3.20
2018-09-18T11:29:54.258Z,3.00
2018-09-18T11:32:22.588Z,3.30
2018-09-18T11:34:50.927Z,3.63
2018-09-18T11:37:19.258Z,3.50
2018-09-18T11:39:47.615Z,3.40
2018-09-18T11:42:15.970Z,3.30
2018-09-18T11:44:44.294Z,3.43
2018-09-18T11:47:12.635Z,3.43
2018-09-18T11:49:40.970Z,3.20
2018-09-18T11:52:10.261Z,2.80
2018-09-18T11:54:38.695Z,3.10
2018-09-18T11:57:07.145Z,2.60
2018-09-18T11:59:35.534Z,3.10
2018-09-18T12:02:04.158Z,3.47
2018-09-18T12:04:32.533Z,3.27
2018-09-18T12:07:00.938Z,3.17
2018-09-18T12:09:29.306Z,3.37
2018-09-18T12:11:57.745Z,3.10
2018-09-18T12:14:26.320Z,3.47
2018-09-18T12:16:54.821Z,2.57
2018-09-18T12:19:23.223Z,3.13
2018-09-18T12:21:51.607Z,2.70
2018-09-18T12:24:19.994Z,2.50
2018-09-18T12:26:48.372Z,2.60
2018-09-18T12:29:16.866Z,2.90
2018-09-18T12:31:45.368Z,3.00
2018-09-18T12:34:14.234Z,2.70
2018-09-18T12:36:42.718Z,2.80
2018-09-18T12:39:11.306Z,3.07
2018-09-18T12:41:40.446Z,2.50
2018-09-18T12:44:08.961Z,3.73
2018-09-18T12:46:37.491Z,3.53
2018-09-18T12:49:06.119Z,2.37
2018-09-18T12:51:34.520Z,2.50
2018-09-18T12:54:03.111Z,2.30
2018-09-18T12:56:31.636Z,2.23
2018-09-18T12:59:00.256Z,2.80
2018-09-18T13:01:28.690Z,2.40
2018-09-18T13:03:57.236Z,2.63
2018-09-18T13:06:25.990Z,2.17
2018-09-18T13:08:54.496Z,2.70
2018-09-18T13:11:22.971Z,3.50
2018-09-18T13:13:51.490Z,2.70
2018-09-18T13:16:19.973Z,3.30
2018-09-18T13:18:48.526Z,2.80
2018-09-18T13:21:17.025Z,2.90
2018-09-18T13:23:45.591Z,2.77
2018-09-18T13:26:14.227Z,2.37
2018-09-18T13:28:42.765Z,3.20
2018-09-18T13:31:11.330Z,2.50
2018-09-18T13:33:39.823Z,2.97
2018-09-18T13:36:08.347Z,2.77
2018-09-18T13:38:36.942Z,2.57
2018-09-18T13:41:05.471Z,2.87
2018-09-18T13:43:34.809Z,2.70
2018-09-18T13:46:03.265Z,3.50
2018-09-18T13:48:31.833Z,2.17
2018-09-18T13:51:00.317Z,2.57
2018-09-18T13:53:28.847Z,3.00
2018-09-18T13:55:57.243Z,2.90
2018-09-18T13:58:25.728Z,2.80
2018-09-18T14:00:54.188Z,2.40
2018-09-18T14:03:22.654Z,2.97
2018-09-18T14:05:51.139Z,2.13
2018-09-18T14:08:19.928Z,2.73
2018-09-18T14:10:48.504Z,2.53
2018-09-18T14:13:17.026Z,2.97
2018-09-18T14:15:45.676Z,2.83
2018-09-18T14:18:14.784Z,2.90
2018-09-18T14:20:43.358Z,2.70
2018-09-18T14:23:11.916Z,2.63
2018-09-18T14:25:40.463Z,3.00
2018-09-18T14:28:09.130Z,2.50
2018-09-18T14:30:37.691Z,2.73
2018-09-18T14:33:06.302Z,2.83
2018-09-18T14:35:34.863Z,3.50
2018-09-18T14:38:03.521Z,2.73
2018-09-18T14:40:32.163Z,2.63
2018-09-18T14:43:00.611Z,2.70
2018-09-18T14:45:29.188Z,2.40
2018-09-18T14:47:57.710Z,3.27
2018-09-18T14:50:26.266Z,3.60
2018-09-18T14:52:54.793Z,2.60
2018-09-18T14:55:23.429Z,3.57
2018-09-18T14:57:52.048Z,2.97
2018-09-18T15:00:20.651Z,3.30
2018-09-18T15:02:49.391Z,3.10
2018-09-18T15:05:17.855Z,3.40
2018-09-18T15:07:46.445Z,3.27
2018-09-18T15:10:14.975Z,2.83
2018-09-18T15:12:43.841Z,3.97
2018-09-18T15:15:12.711Z,3.20
2018-09-18T15:17:41.369Z,3.50
2018-09-18T15:20:09.935Z,2.90
2018-09-18T15:22:38.763Z,4.00
2018-09-18T15:25:07.269Z,3.53
2018-09-18T15:27:35.924Z,3.50
2018-09-18T15:30:04.645Z,3.17
2018-09-18T15:32:33.366Z,3.50
2018-09-18T15:35:01.945Z,3.67
2018-09-18T15:37:30.494Z,3.70
2018-09-18T15:39:59.070Z,2.47
2018-09-18T15:42:27.878Z,3.73
2018-09-18T15:44:56.395Z,3.53
2018-09-18T15:47:27.088Z,3.37
2018-09-18T15:49:55.535Z,3.50
2018-09-18T15:52:24.035Z,4.13
2018-09-18T15:54:54.951Z,3.50
2018-09-18T15:57:23.859Z,4.23
2018-09-18T15:59:54.444Z,4.20
2018-09-18T16:02:26.005Z,3.43
2018-09-18T16:04:55.563Z,3.80
2018-09-18T16:07:26.013Z,3.80
2018-09-18T16:09:54.835Z,3.93
2018-09-18T16:12:23.635Z,3.70
2018-09-18T16:14:54.170Z,4.30
2018-09-18T16:17:22.544Z,3.97
2018-09-18T16:19:53.612Z,3.77
2018-09-18T16:22:22.084Z,3.73
2018-09-18T16:24:52.445Z,4.07
2018-09-18T16:27:21.161Z,3.60
2018-09-18T16:29:49.883Z,4.23
2018-09-18T16:32:20.596Z,3.20
2018-09-18T16:34:49.154Z,3.47
2018-09-18T16:37:17.546Z,4.13
2018-09-18T16:39:48.302Z,4.13
2018-09-18T16:42:17.014Z,3.77
2018-09-18T16:44:46.837Z,3.77
2018-09-18T16:47:17.253Z,4.10
2018-09-18T16:49:48.035Z,4.30
2018-09-18T16:52:19.213Z,4.00
2018-09-18T16:54:47.773Z,4.00
2018-09-18T16:57:18.676Z,4.10
2018-09-18T16:59:48.538Z,3.93
2018-09-18T17:02:17.088Z,4.40
2018-09-18T17:04:48.212Z,5.40
2018-09-18T17:07:16.691Z,4.20
2018-09-18T17:09:45.086Z,5.17
2018-09-18T17:12:13.693Z,4.70
2018-09-18T17:14:42.241Z,5.20
2018-09-18T17:17:10.727Z,4.53
2018-09-18T17:19:39.386Z,4.47
2018-09-18T17:22:07.850Z,5.20
2018-09-18T17:24:36.231Z,3.93
2018-09-18T17:27:04.582Z,4.10
2018-09-18T17:29:32.890Z,4.57
2018-09-18T17:32:01.354Z,4.80
2018-09-18T17:34:29.833Z,4.77
2018-09-18T17:36:58.500Z,4.40
2018-09-18T17:39:26.830Z,4.30
2018-09-18T17:41:55.197Z,3.93
2018-09-18T17:44:23.641Z,4.20
2018-09-18T17:46:51.983Z,3.60
2018-09-18T17:49:20.323Z,3.80
2018-09-18T17:51:48.670Z,3.73
2018-09-18T17:54:16.996Z,3.37
2018-09-18T17:56:45.523Z,3.73
2018-09-18T17:59:13.956Z,3.47
2018-09-18T18:01:42.420Z,3.93
2018-09-18T18:04:10.948Z,3.40
2018-09-18T18:06:39.424Z,3.90
2018-09-18T18:09:08.034Z,4.40
2018-09-18T18:11:36.403Z,3.53
2018-09-18T18:14:04.822Z,3.47
2018-09-18T18:16:33.157Z,4.10
2018-09-18T18:19:02.518Z,4.57
2018-09-18T18:21:30.836Z,4.13
2018-09-18T18:23:59.287Z,4.87
2018-09-18T18:26:27.796Z,5.40
2018-09-18T18:28:56.219Z,4.40
2018-09-18T18:31:24.755Z,4.73
2018-09-18T18:33:53.126Z,5.67
2018-09-18T18:36:21.516Z,6.03
2018-09-18T18:38:49.864Z,4.43
2018-09-18T18:41:18.150Z,4.70
2018-09-18T18:43:46.514Z,4.80
2018-09-18T18:46:14.966Z,5.10
2018-09-18T18:48:43.293Z,5.57
2018-09-18T18:51:11.607Z,5.53
2018-09-18T18:53:39.931Z,4.63
2018-09-18T18:56:08.235Z,4.77
2018-09-18T18:58:36.580Z,4.97
2018-09-18T19:01:05.044Z,4.67
2018-09-18T19:03:33.454Z,3.97
2018-09-18T19:06:01.908Z,3.70
2018-09-18T19:08:30.288Z,4.30
2018-09-18T19:10:59.697Z,4.37
2018-09-18T19:13:28.159Z,4.70
2018-09-18T19:15:56.650Z,4.17
2018-09-18T19:18:25.125Z,5.07
2018-09-18T19:20:53.591Z,3.50
2018-09-18T19:23:21.980Z,4.23
2018-09-18T19:25:50.276Z,3.70
2018-09-18T19:28:18.611Z,4.13
2018-09-18T19:30:47.037Z,4.10
2018-09-18T19:33:15.500Z,2.87
2018-09-18T19:35:43.698Z,2.73
2018-09-18T19:38:12.039Z,2.80
2018-09-18T19:40:40.377Z,2.73
2018-09-18T19:43:08.768Z,3.00
2018-09-18T19:45:37.051Z,2.90
2018-09-18T19:48:05.387Z,3.07
2018-09-18T19:50:33.814Z,2.70
2018-09-18T19:53:02.034Z,2.40
2018-09-18T19:55:30.462Z,2.33
2018-09-18T19:57:58.786Z,2.67
2018-09-18T20:00:27.126Z,2.10
2018-09-18T20:02:55.542Z,1.77
2018-09-18T20:05:23.856Z,1.60
2018-09-18T20:07:52.190Z,2.00
2018-09-18T20:10:20.561Z,2.00
2018-09-18T20:12:48.927Z,2.20
2018-09-18T20:15:17.328Z,2.10
2018-09-18T20:17:45.669Z,2.07
2018-09-18T20:20:14.093Z,2.50
2018-09-18T20:22:42.441Z,1.83
2018-09-18T20:25:11.029Z,2.10
2018-09-18T20:27:39.349Z,2.00
2018-09-18T20:30:07.686Z,2.37
2018-09-18T20:32:36.023Z,2.10
2018-09-18T20:35:04.425Z,1.90
2018-09-18T20:37:32.732Z,2.50
2018-09-18T20:40:01.060Z,2.00
2018-09-18T20:42:29.394Z,2.07
2018-09-18T20:44:57.710Z,2.67
2018-09-18T20:47:26.085Z,2.00
2018-09-18T20:49:54.428Z,2.30
2018-09-18T20:52:22.787Z,1.53
2018-09-18T20:54:51.155Z,2.27
2018-09-18T20:57:19.496Z,2.47
2018-09-18T20:59:47.932Z,2.40
2018-09-18T21:02:16.354Z,2.13
2018-09-18T21:04:44.645Z,2.00
2018-09-18T21:07:13.057Z,2.03
2018-09-18T21:09:41.395Z,2.10
2018-09-18T21:12:09.748Z,2.70
2018-09-18T21:14:38.084Z,1.80
2018-09-18T21:17:06.409Z,2.30
2018-09-18T21:19:34.726Z,2.50
2018-09-18T21:22:03.045Z,2.13
2018-09-18T21:24:31.379Z,2.40
2018-09-18T21:26:59.707Z,1.80
2018-09-18T21:29:28.067Z,2.60
2018-09-18T21:31:56.403Z,2.20
2018-09-18T21:34:24.763Z,1.93
2018-09-18T21:36:53.122Z,3.00
2018-09-18T21:39:21.467Z,2.17
2018-09-18T21:41:49.826Z,2.40
2018-09-18T21:44:18.261Z,3.10
2018-09-18T21:46:46.645Z,2.60
2018-09-18T21:49:15.082Z,2.67
2018-09-18T21:51:43.490Z,2.60
2018-09-18T21:54:11.927Z,2.60
2018-09-18T21:56:40.310Z,2.43
2018-09-18T21:59:08.777Z,2.80
2018-09-18T22:01:37.141Z,2.70
2018-09-18T22:04:05.467Z,2.50
2018-09-18T22:06:33.821Z,3.20
2018-09-18T22:09:02.162Z,2.60
2018-09-18T22:11:30.514Z,2.50
2018-09-18T22:13:58.861Z,3.07
2018-09-18T22:16:27.223Z,2.60
2018-09-18T22:18:55.569Z,3.70
2018-09-18T22:21:23.961Z,3.23
2018-09-18T22:23:52.302Z,2.97
2018-09-18T22:26:20.652Z,2.60
2018-09-18T22:28:48.997Z,3.17
2018-09-18T22:31:17.335Z,3.67
2018-09-18T22:33:45.647Z,3.40
2018-09-18T22:36:14.033Z,3.30
2018-09-18T22:38:42.302Z,2.80
2018-09-18T22:41:10.652Z,3.70
2018-09-18T22:43:39.032Z,3.40
2018-09-18T22:46:07.361Z,3.57
2018-09-18T22:48:35.727Z,3.50
2018-09-18T22:51:04.066Z,3.43
2018-09-18T22:53:32.428Z,3.37
2018-09-18T22:56:00.738Z,3.50
2018-09-18T22:58:29.124Z,3.83
2018-09-18T23:00:57.463Z,3.53
2018-09-18T23:03:25.860Z,3.20
2018-09-18T23:05:54.186Z,3.70
2018-09-18T23:08:22.589Z,3.63
2018-09-18T23:10:50.933Z,4.00
2018-09-18T23:13:19.287Z,4.30
2018-09-18T23:15:47.794Z,3.50
2018-09-18T23:18:17.357Z,4.83
2018-09-18T23:20:45.838Z,4.17
2018-09-18T23:23:14.375Z,3.23
2018-09-18T23:25:42.808Z,4.40
2018-09-18T23:28:11.192Z,4.17
2018-09-18T23:30:39.703Z,4.20
2018-09-18T23:33:08.154Z,4.40
2018-09-18T23:35:36.606Z,4.93
2018-09-18T23:38:05.201Z,3.70
2018-09-18T23:40:35.651Z,3.70
2018-09-18T23:43:04.012Z,4.23
2018-09-18T23:45:32.354Z,4.83
2018-09-18T23:48:00.710Z,4.50
2018-09-18T23:50:29.103Z,4.23
2018-09-18T23:52:57.487Z,4.53
2018-09-18T23:55:25.893Z,4.80
2018-09-18T23:57:54.289Z,4.70
